Time;durP1;ratioP1;P1;durP2;ratioP2;P2;SDS_P1;SDS_P2;PMS_P1;PMS_P2;Temp;Humidity;BMP_temperature;BMP_pressure;BME280_temperature;BME280_humidity;BME280_pressure;Samples;Min_cycle;Max_cycle;Signal;HPM_P1;HPM_P2
2022/08/19 00:02:03;;;;;;;0.10;0.10;;;;;;;21.41;64.45;101430.50;5121320;27;20563;-78
2022/08/19 00:04:36;;;;;;;0.25;0.25;;;;;;;21.39;64.52;101429.72;5114974;27;20024;-78
2022/08/19 00:07:04;;;;;;;0.10;0.10;;;;;;;21.37;64.39;101426.25;5115191;28;20089;-77
2022/08/19 00:09:33;;;;;;;0.10;0.10;;;;;;;21.36;64.42;101432.59;5114288;28;20092;-77
2022/08/19 00:12:01;;;;;;;0.10;0.10;;;;;;;21.37;64.46;101432.53;5114510;28;20020;-78
2022/08/19 00:14:31;;;;;;;0.10;0.10;;;;;;;21.36;64.70;101433.47;5114886;28;20020;-78
2022/08/19 00:17:00;;;;;;;0.10;0.10;;;;;;;21.38;64.97;101433.38;5114989;28;20032;-78
2022/08/19 00:19:41;;;;;;;0.10;0.10;;;;;;;21.41;64.97;101444.88;5114489;28;20034;-78
2022/08/19 00:22:12;;;;;;;0.55;0.55;;;;;;;21.32;64.92;101440.84;5115360;28;20480;-78
2022/08/19 00:24:43;;;;;;;0.30;0.30;;;;;;;21.30;64.92;101442.75;5117998;28;20512;-77
2022/08/19 00:27:14;;;;;;;0.10;0.10;;;;;;;21.29;64.91;101442.84;5124311;28;20112;-77
2022/08/19 00:29:42;;;;;;;0.10;0.10;;;;;;;21.26;65.00;101435.81;5127204;28;20040;-77
2022/08/19 00:32:10;;;;;;;0.30;0.30;;;;;;;21.25;64.75;101435.91;5126411;28;20039;-77
2022/08/19 00:34:37;;;;;;;0.10;0.10;;;;;;;21.24;64.97;101426.94;5117203;28;20492;-78
2022/08/19 00:37:04;;;;;;;0.10;0.10;;;;;;;21.23;65.27;101424.31;5114701;28;20027;-78
2022/08/19 00:39:31;;;;;;;0.10;0.10;;;;;;;21.23;65.01;101422.50;5114982;28;20088;-79
2022/08/19 00:41:58;;;;;;;0.10;0.10;;;;;;;21.22;65.35;101418.09;5115180;28;20480;-78
2022/08/19 00:44:28;;;;;;;0.10;0.10;;;;;;;21.23;65.30;101427.88;5114981;28;20084;-78
2022/08/19 00:46:58;;;;;;;0.10;0.10;;;;;;;21.21;65.02;101427.13;5114536;28;20058;-78
2022/08/19 00:49:31;;;;;;;0.28;0.28;;;;;;;21.21;65.04;101421.72;5114338;28;20036;-78
2022/08/19 00:52:06;;;;;;;0.20;0.20;;;;;;;21.18;65.34;101427.28;5114914;28;20035;-78
2022/08/19 00:54:33;;;;;;;0.17;0.17;;;;;;;21.13;64.97;101429.34;5113554;28;20110;-78
2022/08/19 00:57:01;;;;;;;0.73;0.73;;;;;;;21.11;65.34;101436.63;5114754;28;20488;-78
2022/08/19 00:59:30;;;;;;;0.20;0.20;;;;;;;21.11;65.30;101431.25;5114624;28;20560;-78
2022/08/19 01:01:57;;;;;;;0.10;0.10;;;;;;;21.11;65.34;101431.25;5113765;28;20055;-77
2022/08/19 01:04:24;;;;;;;0.10;0.10;;;;;;;21.11;65.53;101437.53;5114837;28;20040;-78
2022/08/19 01:06:51;;;;;;;1.35;0.55;;;;;;;21.10;65.45;101440.31;5114801;28;20027;-78
2022/08/19 01:09:18;;;;;;;0.75;0.75;;;;;;;21.09;65.33;101443.97;5114675;28;20480;-78
2022/08/19 01:11:46;;;;;;;0.10;0.10;;;;;;;21.06;65.38;101444.09;5114098;28;20043;-78
2022/08/19 01:14:14;;;;;;;0.77;0.77;;;;;;;21.04;65.67;101440.66;5113884;28;20122;-78
2022/08/19 01:16:43;;;;;;;0.52;0.52;;;;;;;21.03;65.17;101453.22;5113758;28;20666;-78
2022/08/19 01:19:26;;;;;;;0.10;0.10;;;;;;;21.04;65.36;101448.72;5113567;28;20408;-78
2022/08/19 01:22:01;;;;;;;0.10;0.10;;;;;;;21.03;65.27;101444.28;5113873;28;20035;-78
2022/08/19 01:24:28;;;;;;;0.75;0.75;;;;;;;20.99;65.22;101433.66;5113729;28;20051;-78
2022/08/19 01:26:54;;;;;;;0.35;0.35;;;;;;;20.99;65.71;101438.19;5113606;28;20047;-78
2022/08/19 01:29:22;;;;;;;0.28;0.28;;;;;;;20.98;65.95;101431.91;5113481;28;20159;-77
2022/08/19 01:31:51;;;;;;;0.10;0.10;;;;;;;20.96;65.69;101444.63;5113599;28;20034;-78
2022/08/19 01:34:19;;;;;;;0.13;0.13;;;;;;;20.94;65.24;101440.28;5113883;28;20032;-78
2022/08/19 01:36:48;;;;;;;0.10;0.10;;;;;;;20.92;66.24;101440.38;5113995;28;20034;-78
2022/08/19 01:39:21;;;;;;;0.55;0.40;;;;;;;20.90;65.84;101444.97;5113541;28;20061;-78
2022/08/19 01:41:49;;;;;;;0.10;0.10;;;;;;;20.89;66.10;101451.28;5114123;28;20032;-78
2022/08/19 01:44:20;;;;;;;0.55;0.55;;;;;;;20.88;66.47;101451.38;5113925;28;20115;-78
2022/08/19 01:46:49;;;;;;;0.10;0.10;;;;;;;20.88;66.39;101446.84;5114368;28;20048;-79
2022/08/19 01:49:20;;;;;;;0.10;0.10;;;;;;;20.84;66.72;101445.28;5113354;28;20035;-78
2022/08/19 01:51:47;;;;;;;0.10;0.10;;;;;;;20.84;66.62;101453.38;5113295;28;20054;-77
2022/08/19 01:54:16;;;;;;;0.20;0.20;;;;;;;20.81;67.40;101445.44;5113837;28;20143;-78
2022/08/19 01:56:43;;;;;;;0.10;0.10;;;;;;;20.78;67.07;101446.47;5114250;28;20055;-78
2022/08/19 01:59:15;;;;;;;0.20;0.20;;;;;;;20.79;66.84;101444.66;5114119;28;20032;-78
2022/08/19 02:01:47;;;;;;;0.25;0.25;;;;;;;20.80;66.45;101449.09;5114522;28;20035;-79
2022/08/19 02:04:14;;;;;;;0.10;0.10;;;;;;;20.77;66.70;101446.56;5114301;28;20038;-78
2022/08/19 02:06:41;;;;;;;0.10;0.10;;;;;;;20.76;66.53;101442.13;5114278;28;20027;-78
2022/08/19 02:09:12;;;;;;;0.10;0.10;;;;;;;20.79;66.78;101452.75;5112865;28;20039;-78
2022/08/19 02:11:39;;;;;;;0.10;0.10;;;;;;;20.74;67.33;101450.28;5112892;28;20039;-78
2022/08/19 02:14:08;;;;;;;0.10;0.10;;;;;;;20.75;66.94;101445.75;5113325;28;20028;-78
2022/08/19 02:16:40;;;;;;;0.85;0.85;;;;;;;20.74;66.97;101447.59;5112571;28;20043;-78
2022/08/19 02:19:09;;;;;;;0.10;0.10;;;;;;;20.73;67.04;101439.59;5113170;28;20031;-78
2022/08/19 02:21:37;;;;;;;0.28;0.28;;;;;;;20.72;66.68;101446.78;5113081;28;20492;-78
2022/08/19 02:24:04;;;;;;;0.10;0.10;;;;;;;20.71;67.21;101449.53;5113189;28;20036;-77
2022/08/19 02:26:33;;;;;;;0.35;0.35;;;;;;;20.72;66.88;101440.56;5113405;28;20024;-79
2022/08/19 02:29:04;;;;;;;0.08;0.08;;;;;;;20.74;66.83;101438.66;5113311;28;20034;-79
2022/08/19 02:31:33;;;;;;;0.20;0.20;;;;;;;20.71;66.58;101446.84;5112022;28;20188;-78
2022/08/19 02:34:01;;;;;;;0.52;0.52;;;;;;;20.71;66.56;101438.78;5113066;28;20089;-78
2022/08/19 02:36:31;;;;;;;0.15;0.15;;;;;;;20.72;66.19;101441.41;5112963;28;20027;-78
2022/08/19 02:39:00;;;;;;;0.10;0.10;;;;;;;20.69;66.48;101437.03;5112878;28;20086;-78
2022/08/19 02:41:30;;;;;;;0.10;0.10;;;;;;;20.69;66.91;101437.03;5111955;28;20115;-78
2022/08/19 02:44:12;;;;;;;0.40;0.40;;;;;;;20.68;66.78;101427.22;5112479;28;20030;-78
2022/08/19 02:46:43;;;;;;;0.10;0.10;;;;;;;20.66;67.32;101420.16;5112281;28;20119;-78
2022/08/19 02:49:11;;;;;;;1.75;1.08;;;;;;;20.65;66.99;101424.69;5112170;28;20114;-78
2022/08/19 02:51:45;;;;;;;1.45;0.75;;;;;;;20.67;67.07;101425.50;5111577;28;20114;-77
2022/08/19 02:54:16;;;;;;;0.10;0.10;;;;;;;20.62;67.15;101424.88;5112016;28;20438;-78
2022/08/19 02:56:46;;;;;;;1.10;0.63;;;;;;;20.61;66.95;101427.63;5112281;28;20024;-78
2022/08/19 02:59:13;;;;;;;0.63;0.63;;;;;;;20.59;66.63;101425.03;5112223;28;20031;-78
2022/08/19 03:01:43;;;;;;;0.17;0.17;;;;;;;20.59;67.01;101430.41;5111877;28;20477;-78
2022/08/19 03:04:17;;;;;;;0.15;0.15;;;;;;;20.58;66.96;101423.28;5112221;28;20056;-78
2022/08/19 03:06:48;;;;;;;0.08;0.08;;;;;;;20.59;67.33;101427.72;5112071;28;20031;-78
2022/08/19 03:09:17;;;;;;;0.40;0.40;;;;;;;20.56;67.20;101417.13;5112093;28;20118;-78
2022/08/19 03:11:46;;;;;;;0.10;0.10;;;;;;;20.51;67.28;101417.34;5111869;28;20028;-78
2022/08/19 03:14:15;;;;;;;0.75;0.75;;;;;;;20.50;67.36;101422.84;5112146;28;20024;-78
2022/08/19 03:16:47;;;;;;;0.20;0.20;;;;;;;20.51;67.21;101419.16;5113072;28;20051;-78
2022/08/19 03:19:21;;;;;;;0.10;0.10;;;;;;;20.49;67.20;101413.00;5116776;28;20042;-78
2022/08/19 03:21:52;;;;;;;0.10;0.10;;;;;;;20.45;66.96;101412.28;5116671;28;20031;-79
2022/08/19 03:24:20;;;;;;;0.10;0.10;;;;;;;20.40;66.69;101408.09;5117568;28;20105;-78
2022/08/19 03:26:49;;;;;;;0.25;0.25;;;;;;;20.39;66.90;101411.72;5118319;28;20035;-78
2022/08/19 03:29:18;;;;;;;0.50;0.50;;;;;;;20.36;67.16;101400.19;5118456;28;20027;-78
2022/08/19 03:31:46;;;;;;;0.30;0.30;;;;;;;20.38;67.26;101401.94;5117065;28;20558;-78
2022/08/19 03:34:17;;;;;;;0.38;0.38;;;;;;;20.35;67.74;101400.28;5117040;28;20036;-78
2022/08/19 03:36:45;;;;;;;2.60;0.75;;;;;;;20.35;67.21;101398.44;5116117;28;20031;-78
2022/08/19 03:39:12;;;;;;;0.43;0.43;;;;;;;20.35;67.63;101398.44;5115496;28;20042;-77
2022/08/19 03:41:41;;;;;;;0.55;0.52;;;;;;;20.36;67.55;101400.19;5115260;28;20425;-77
2022/08/19 03:44:09;;;;;;;0.10;0.10;;;;;;;20.36;67.73;101400.19;5114880;28;20035;-77
2022/08/19 03:46:37;;;;;;;0.15;0.15;;;;;;;20.35;67.58;101406.53;5115164;28;20023;-77
2022/08/19 03:49:07;;;;;;;0.65;0.65;;;;;;;20.34;67.64;101403.91;5115123;28;20046;-78
2022/08/19 03:51:39;;;;;;;0.10;0.10;;;;;;;20.36;67.72;101412.75;5115230;28;20077;-78
2022/08/19 03:54:09;;;;;;;0.25;0.25;;;;;;;20.34;67.61;101412.84;5115860;28;20541;-78
2022/08/19 03:56:39;;;;;;;0.28;0.28;;;;;;;20.33;67.75;101411.09;5116062;28;20485;-79
2022/08/19 03:59:11;;;;;;;0.40;0.40;;;;;;;20.33;67.67;101410.25;5116186;28;20031;-78
2022/08/19 04:01:39;;;;;;;0.10;0.10;;;;;;;20.31;67.71;101417.53;5116204;28;20024;-78
2022/08/19 04:04:06;;;;;;;0.80;0.80;;;;;;;20.29;67.76;101422.97;5117259;28;20558;-79
2022/08/19 04:06:36;;;;;;;0.77;0.77;;;;;;;20.26;68.97;101422.28;5116123;28;20074;-78
2022/08/19 04:09:09;;;;;;;0.10;0.10;;;;;;;20.27;68.75;101424.88;5116902;28;20035;-79
2022/08/19 04:11:44;;;;;;;0.30;0.30;;;;;;;20.26;69.33;101423.16;5116311;28;20036;-79
2022/08/19 04:14:13;;;;;;;0.32;0.32;;;;;;;20.23;69.92;101412.53;5116842;28;20035;-79
2022/08/19 04:16:43;;;;;;;3.22;0.95;;;;;;;20.24;69.39;101419.66;5117184;28;20035;-79
2022/08/19 04:19:11;;;;;;;0.70;0.70;;;;;;;20.27;69.64;101416.81;5116449;28;20032;-78
2022/08/19 04:21:38;;;;;;;4.05;1.23;;;;;;;20.27;69.08;101414.09;5116469;28;20020;-79
2022/08/19 04:24:14;;;;;;;5.03;2.53;;;;;;;20.32;69.63;101412.03;5116130;28;20651;-78
2022/08/19 04:26:41;;;;;;;0.52;0.52;;;;;;;20.33;69.95;101424.56;5116614;28;20033;-78
2022/08/19 04:29:15;;;;;;;1.05;1.05;;;;;;;20.36;69.84;101423.53;5116480;28;20055;-79
2022/08/19 04:31:45;;;;;;;0.93;0.93;;;;;;;20.31;70.23;101421.09;5115815;27;20028;-79
2022/08/19 04:34:14;;;;;;;2.28;1.75;;;;;;;20.33;70.29;101423.69;5115803;28;20027;-79
2022/08/19 04:36:44;;;;;;;4.22;1.23;;;;;;;20.38;69.97;101420.78;5115970;28;20042;-78
2022/08/19 04:39:15;;;;;;;1.17;0.98;;;;;;;20.35;70.37;101419.97;5115091;28;20031;-79
2022/08/19 04:44:36;;;;;;;2.08;1.60;;;;;;;20.30;70.69;101430.13;5115032;28;20155;-79
2022/08/19 04:47:06;;;;;;;2.35;1.65;;;;;;;20.36;69.77;101426.22;5115444;28;20028;-79
2022/08/19 04:49:34;;;;;;;1.50;1.00;;;;;;;20.36;70.01;101427.09;5123032;28;20463;-79
2022/08/19 04:52:05;;;;;;;0.93;0.93;;;;;;;20.36;70.01;101429.78;5127213;28;20091;-78
2022/08/19 04:54:32;;;;;;;2.22;1.48;;;;;;;20.35;69.77;101422.66;5117247;28;20067;-78
2022/08/19 04:57:08;;;;;;;1.35;1.25;;;;;;;20.39;69.58;101433.25;5117500;28;20024;-78
2022/08/19 04:59:39;;;;;;;0.82;0.82;;;;;;;20.34;69.89;101436.22;5126401;27;20080;-78
2022/08/19 05:02:20;;;;;;;1.10;1.10;;;;;;;20.39;70.13;101438.63;5127994;27;20082;-78
2022/08/19 05:04:48;;;;;;;2.97;1.63;;;;;;;20.42;69.97;101438.50;5123453;27;20037;-77
2022/08/19 05:07:21;;;;;;;3.65;2.53;;;;;;;20.51;69.90;101438.00;5117033;27;20164;-78
2022/08/19 05:09:49;;;;;;;2.40;2.25;;;;;;;20.52;70.44;101445.13;5122477;27;20058;-78
2022/08/19 05:12:19;;;;;;;0.90;0.90;;;;;;;20.61;70.31;101444.66;5117140;27;20516;-79
2022/08/19 05:14:54;;;;;;;0.57;0.57;;;;;;;20.66;69.88;101447.09;5116237;28;20035;-79
2022/08/19 05:17:23;;;;;;;5.47;4.50;;;;;;;20.66;70.29;101437.22;5116124;28;20028;-79
2022/08/19 05:22:38;;;;;;;1.23;1.15;;;;;;;20.82;69.43;101437.31;5114949;28;20560;-79
2022/08/19 05:25:13;;;;;;;2.40;0.90;;;;;;;20.91;69.57;101435.94;5114765;28;20023;-79
2022/08/19 05:27:42;;;;;;;1.58;1.33;;;;;;;20.99;69.27;101439.06;5115290;28;20031;-80
2022/08/19 05:30:13;;;;;;;1.88;1.77;;;;;;;21.08;69.49;101431.44;5116276;28;20085;-80
2022/08/19 05:32:41;;;;;;;0.30;0.30;;;;;;;21.14;69.45;101436.50;5115955;28;20070;-80
2022/08/19 05:35:11;;;;;;;0.45;0.45;;;;;;;21.22;69.55;101436.06;5122338;27;20028;-80
2022/08/19 05:37:40;;;;;;;0.10;0.10;;;;;;;21.31;69.24;101439.13;5117665;28;20711;-81
2022/08/19 05:40:10;;;;;;;1.00;1.00;;;;;;;21.33;69.84;101447.09;5118096;28;20061;-81
2022/08/19 05:42:39;;;;;;;0.57;0.57;;;;;;;21.37;69.59;101445.13;5118165;28;20420;-80
2022/08/19 05:45:07;;;;;;;2.95;1.20;;;;;;;21.48;69.16;101445.38;5132701;27;20031;-80
2022/08/19 05:47:35;;;;;;;2.13;1.17;;;;;;;21.52;69.41;101444.25;5137935;27;20505;-80
2022/08/19 05:50:03;;;;;;;0.43;0.43;;;;;;;21.61;69.05;101446.47;5136722;27;20024;-78
2022/08/19 05:52:30;;;;;;;0.30;0.30;;;;;;;21.68;68.94;101438.03;5134273;27;20019;-78
2022/08/19 05:54:57;;;;;;;1.30;1.30;;;;;;;21.76;68.70;101438.47;5114465;28;20033;-78
2022/08/19 05:57:28;;;;;;;5.32;1.77;;;;;;;21.80;68.75;101435.47;5114468;28;20058;-78
2022/08/19 06:00:00;;;;;;;0.82;0.82;;;;;;;21.92;68.59;101439.28;5114198;28;20023;-78
2022/08/19 06:02:30;;;;;;;0.60;0.60;;;;;;;21.94;68.61;101434.69;5114282;27;20015;-78
2022/08/19 06:04:57;;;;;;;2.30;1.85;;;;;;;22.03;68.33;101430.56;5114991;28;20039;-80
2022/08/19 06:07:23;;;;;;;5.45;2.28;;;;;;;22.09;68.12;101441.00;5114999;28;20019;-79
2022/08/19 06:09:51;;;;;;;4.65;1.58;;;;;;;22.13;68.05;101433.56;5115324;28;20058;-80
2022/08/19 06:12:19;;;;;;;1.50;1.33;;;;;;;22.17;68.00;101435.16;5115544;28;20024;-80
2022/08/19 06:14:46;;;;;;;0.40;0.40;;;;;;;22.24;67.93;101436.53;5116260;28;20479;-80
2022/08/19 06:17:16;;;;;;;1.40;0.95;;;;;;;22.32;67.77;101435.16;5116602;28;20034;-80
2022/08/19 06:19:43;;;;;;;6.70;0.85;;;;;;;22.35;67.65;101429.59;5116521;28;20042;-79
2022/08/19 06:22:11;;;;;;;0.57;0.57;;;;;;;22.32;67.34;101432.47;5121079;28;20102;-79
2022/08/19 06:24:37;;;;;;;0.80;0.80;;;;;;;22.32;67.15;101429.78;5120036;28;20369;-80
2022/08/19 06:27:05;;;;;;;1.75;1.50;;;;;;;22.34;67.00;101427.88;5119491;28;20153;-80
2022/08/19 06:29:32;;;;;;;0.15;0.15;;;;;;;22.27;67.25;101427.38;5116431;28;20035;-80
2022/08/19 06:32:00;;;;;;;1.20;1.20;;;;;;;22.22;67.37;101430.34;5116422;28;20055;-79
2022/08/19 06:34:28;;;;;;;0.63;0.63;;;;;;;22.22;67.32;101430.34;5114908;28;20028;-79
2022/08/19 06:36:55;;;;;;;0.45;0.45;;;;;;;22.28;67.54;101429.97;5117015;28;20093;-79
2022/08/19 06:39:25;;;;;;;0.70;0.70;;;;;;;22.35;67.63;101424.22;5116503;28;20438;-79
2022/08/19 06:41:55;;;;;;;0.88;0.88;;;;;;;22.33;67.89;101436.91;5116563;28;20024;-79
2022/08/19 06:44:23;;;;;;;1.77;1.67;;;;;;;22.28;67.72;101435.38;5116714;28;20039;-79
2022/08/19 06:46:50;;;;;;;1.33;1.33;;;;;;;22.28;67.86;101429.97;5116263;28;20030;-79
2022/08/19 06:49:17;;;;;;;1.65;1.65;;;;;;;22.27;67.50;101428.22;5116653;28;20377;-80
2022/08/19 06:51:47;;;;;;;2.08;1.00;;;;;;;22.35;67.54;101426.91;5120426;27;20019;-79
2022/08/19 06:54:14;;;;;;;4.05;2.25;;;;;;;22.29;67.56;101420.91;5139458;27;20019;-78
2022/08/19 06:56:41;;;;;;;0.85;0.85;;;;;;;22.38;67.23;101424.03;5139721;27;20471;-79
2022/08/19 06:59:14;;;;;;;2.88;2.10;;;;;;;22.36;67.60;101432.19;5140310;27;20027;-79
2022/08/19 07:01:45;;;;;;;3.95;2.85;;;;;;;22.36;67.79;101437.59;5141289;27;20396;-79
2022/08/19 07:04:18;;;;;;;9.35;2.85;;;;;;;22.44;67.62;101439.88;5140450;27;20035;-79
2022/08/19 07:06:45;;;;;;;0.47;0.47;;;;;;;22.47;67.32;101439.69;5121767;27;20422;-79
2022/08/19 07:09:19;;;;;;;0.50;0.50;;;;;;;22.60;67.00;101443.38;5139065;27;20039;-80
2022/08/19 07:11:49;;;;;;;9.07;1.65;;;;;;;22.69;67.31;101451.88;5138288;27;20077;-79
2022/08/19 07:14:19;;;;;;;0.90;0.90;;;;;;;22.72;67.32;101452.56;5139105;27;20492;-80
2022/08/19 07:16:51;;;;;;;1.75;1.65;;;;;;;22.89;66.81;101454.22;5138440;27;20023;-80
2022/08/19 07:19:21;;;;;;;1.83;1.73;;;;;;;23.00;66.70;101458.94;5138734;27;20480;-79
2022/08/19 07:21:52;;;;;;;0.93;0.93;;;;;;;23.02;66.04;101454.31;5138230;27;20034;-79
2022/08/19 07:24:23;;;;;;;8.48;2.17;;;;;;;23.16;66.12;101458.88;5138777;27;20084;-80
2022/08/19 07:26:56;;;;;;;0.20;0.20;;;;;;;23.37;65.97;101455.75;5139444;27;20507;-78
2022/08/19 07:29:23;;;;;;;3.35;1.30;;;;;;;23.38;65.61;101449.41;5137508;27;20049;-79
2022/08/19 07:31:51;;;;;;;5.20;2.25;;;;;;;23.37;64.98;101451.22;5133320;27;20027;-79
2022/08/19 07:34:18;;;;;;;1.10;1.10;;;;;;;23.50;64.95;101448.59;5117906;27;20031;-79
2022/08/19 07:36:47;;;;;;;1.48;1.27;;;;;;;23.54;64.75;101449.25;5117393;28;20088;-79
2022/08/19 07:39:19;;;;;;;1.80;1.70;;;;;;;23.66;65.02;101445.72;5118076;28;20051;-79
2022/08/19 07:41:46;;;;;;;0.10;0.10;;;;;;;23.66;64.64;101442.16;5125475;27;20023;-79
2022/08/19 07:44:14;;;;;;;2.53;0.73;;;;;;;23.61;64.70;101452.44;5137960;27;20044;-79
2022/08/19 07:46:45;;;;;;;0.75;0.75;;;;;;;23.78;64.42;101443.22;5138495;27;20031;-80
2022/08/19 07:49:17;;;;;;;2.75;2.15;;;;;;;23.79;64.42;101440.41;5138921;27;20051;-79
2022/08/19 07:51:48;;;;;;;0.40;0.40;;;;;;;23.90;64.22;101447.78;5138349;27;20492;-79
2022/08/19 07:54:16;;;;;;;1.80;1.75;;;;;;;24.01;63.93;101457.91;5138441;27;20075;-79
2022/08/19 07:56:43;;;;;;;0.55;0.55;;;;;;;24.06;62.86;101461.19;5139156;27;20031;-79
2022/08/19 07:59:11;;;;;;;1.83;1.33;;;;;;;24.06;62.81;101463.88;5139264;27;20023;-79
2022/08/19 08:01:39;;;;;;;4.28;1.83;;;;;;;24.16;62.77;101466.84;5137414;27;20030;-79
2022/08/19 08:09:44;;;;;;;0.98;0.98;;;;;;;24.50;61.51;101473.53;5138212;27;20038;-80
2022/08/19 08:12:25;;;;;;;0.82;0.82;;;;;;;24.63;61.06;101480.81;5138433;27;20065;-79
2022/08/19 08:14:56;;;;;;;0.98;0.98;;;;;;;24.63;60.33;101472.69;5137977;27;20160;-79
2022/08/19 08:17:28;;;;;;;1.23;1.23;;;;;;;24.64;59.84;101479.84;5137887;27;20514;-80
2022/08/19 08:19:56;;;;;;;1.10;0.68;;;;;;;24.77;59.18;101475.31;5138693;27;20055;-79
2022/08/19 08:25:16;;;;;;;0.40;0.40;;;;;;;25.03;59.68;101478.03;5135031;27;20071;-79
2022/08/19 08:27:45;;;;;;;2.75;1.50;;;;;;;25.13;59.57;101484.50;5137954;27;20511;-80
2022/08/19 08:30:16;;;;;;;7.53;2.63;;;;;;;25.17;59.14;101480.63;5139455;27;20058;-80
2022/08/19 08:32:43;;;;;;;0.20;0.20;;;;;;;25.28;59.31;101479.84;5139405;27;20492;-80
2022/08/19 08:35:14;;;;;;;2.60;0.98;;;;;;;25.22;58.76;101490.28;5138793;27;20023;-80
2022/08/19 08:37:41;;;;;;;1.35;1.30;;;;;;;25.15;58.81;101485.28;5139089;27;20484;-81
2022/08/19 08:40:19;;;;;;;3.15;2.85;;;;;;;25.12;58.86;101490.06;5137491;27;20020;-80
2022/08/19 08:43:00;;;;;;;1.83;0.73;;;;;;;25.06;58.88;101487.78;5137618;27;20031;-80
2022/08/19 08:45:29;;;;;;;1.05;1.00;;;;;;;25.03;59.09;101502.44;5137982;27;20031;-81
2022/08/19 08:48:09;;;;;;;1.45;1.45;;;;;;;25.06;58.90;101502.22;5138294;27;20071;-80
2022/08/19 08:50:42;;;;;;;2.17;1.02;;;;;;;25.12;59.00;101496.38;5138269;27;20041;-81
2022/08/19 08:53:14;;;;;;;1.58;1.58;;;;;;;25.20;59.39;101499.38;5129501;27;20019;-80
2022/08/19 08:55:45;;;;;;;0.40;0.40;;;;;;;25.27;59.31;101498.94;5138434;27;20036;-81
2022/08/19 08:58:21;;;;;;;0.82;0.82;;;;;;;25.32;59.30;101500.34;5138216;27;20055;-81
2022/08/19 09:00:50;;;;;;;0.95;0.95;;;;;;;25.40;59.26;101505.25;5138142;27;20089;-81
2022/08/19 09:03:24;;;;;;;1.20;1.15;;;;;;;25.45;59.04;101511.19;5139549;27;20041;-81
2022/08/19 09:06:02;;;;;;;0.17;0.17;;;;;;;25.56;59.19;101498.69;5138892;27;20015;-80
2022/08/19 09:11:56;;;;;;;1.30;1.27;;;;;;;25.81;58.53;101506.75;5091501;27;20390;-78
2022/08/19 09:14:50;;;;;;;0.38;0.38;;;;;;;25.81;57.43;101503.19;5088905;27;20027;-79
2022/08/19 09:17:18;;;;;;;0.22;0.22;;;;;;;25.72;58.05;101510.16;5085930;28;20031;-79
2022/08/19 09:22:27;;;;;;;0.30;0.30;;;;;;;25.90;57.64;101501.63;5047285;27;20495;-79
2022/08/19 09:24:54;;;;;;;1.15;1.13;;;;;;;25.99;57.79;101509.09;5047987;28;20244;-80
2022/08/19 09:27:23;;;;;;;0.57;0.57;;;;;;;26.02;57.71;101505.25;5047288;28;20046;-80
2022/08/19 09:29:50;;;;;;;0.77;0.55;;;;;;;26.18;56.92;101502.28;5049532;28;20032;-79
2022/08/19 09:32:17;;;;;;;1.55;1.45;;;;;;;26.21;56.47;101500.22;5047885;28;20225;-79
2022/08/19 09:34:45;;;;;;;1.50;1.33;;;;;;;26.21;56.34;101502.06;5044825;28;20147;-79
2022/08/19 09:37:11;;;;;;;0.38;0.38;;;;;;;26.24;56.78;101497.25;5041285;28;20028;-79
2022/08/19 09:39:40;;;;;;;0.85;0.85;;;;;;;26.42;56.55;101502.28;5047858;28;20031;-79
2022/08/19 09:42:11;;;;;;;3.10;0.68;;;;;;;26.44;55.81;101501.19;5046634;28;20220;-79
2022/08/19 09:44:38;;;;;;;1.55;1.45;;;;;;;26.62;55.48;101506.16;5047469;28;20151;-79
2022/08/19 09:47:04;;;;;;;0.10;0.10;;;;;;;26.71;54.72;101496.44;5048232;28;20173;-79
2022/08/19 09:49:31;;;;;;;0.75;0.75;;;;;;;26.71;55.64;101491.84;5045401;28;20402;-79
2022/08/19 09:51:57;;;;;;;1.10;1.10;;;;;;;26.54;55.84;101498.59;5046974;28;20025;-79
2022/08/19 09:54:24;;;;;;;0.45;0.40;;;;;;;26.70;56.05;101500.97;5046029;28;20392;-79
2022/08/19 09:56:51;;;;;;;0.20;0.20;;;;;;;26.89;55.27;101495.00;5047183;28;20038;-79
2022/08/19 09:59:18;;;;;;;0.28;0.28;;;;;;;27.27;54.22;101499.22;5048645;28;20616;-79
2022/08/19 10:01:44;;;;;;;0.15;0.15;;;;;;;27.53;53.99;101503.59;5045731;28;20077;-79
2022/08/19 10:04:10;;;;;;;0.30;0.30;;;;;;;27.62;52.80;101497.38;5050739;28;20178;-79
2022/08/19 10:06:39;;;;;;;0.55;0.55;;;;;;;27.69;53.03;101503.16;5053906;28;20039;-79
2022/08/19 10:09:07;;;;;;;1.33;0.75;;;;;;;27.68;52.81;101499.59;5054822;28;20028;-79
2022/08/19 10:11:36;;;;;;;0.63;0.63;;;;;;;27.60;53.43;101504.78;5050531;28;20123;-79
2022/08/19 10:14:05;;;;;;;0.20;0.20;;;;;;;27.43;53.82;101498.88;5030228;28;20217;-80
2022/08/19 10:16:32;;;;;;;0.40;0.40;;;;;;;27.04;53.60;101497.47;5031379;28;20089;-80
2022/08/19 10:18:59;;;;;;;0.10;0.10;;;;;;;27.05;54.14;101500.06;5050982;28;20455;-80
2022/08/19 10:21:28;;;;;;;0.70;0.70;;;;;;;27.00;54.30;101496.84;5044739;28;20452;-80
2022/08/19 10:23:59;;;;;;;0.17;0.17;;;;;;;26.90;54.47;101496.72;5022584;28;20213;-80
2022/08/19 10:26:29;;;;;;;0.10;0.10;;;;;;;26.88;54.53;101486.94;5025297;28;20636;-80
2022/08/19 10:28:55;;;;;;;6.22;2.92;;;;;;;26.83;54.43;101500.06;5022974;28;20146;-80
2022/08/19 10:31:25;;;;;;;0.40;0.40;;;;;;;26.70;54.97;101498.25;5025784;28;20020;-80
2022/08/19 10:33:57;;;;;;;1.70;1.17;;;;;;;26.66;55.22;101496.78;5015287;28;20368;-79
2022/08/19 10:36:27;;;;;;;0.20;0.20;;;;;;;26.44;56.70;101500.28;5015797;28;20274;-80
2022/08/19 10:38:58;;;;;;;0.15;0.15;;;;;;;26.39;56.82;101505.22;5014038;28;20202;-80
2022/08/19 10:41:29;;;;;;;0.73;0.73;;;;;;;26.32;56.52;101502.97;5011750;28;20539;-79
2022/08/19 10:43:58;;;;;;;1.40;1.30;;;;;;;26.30;56.30;101504.06;5013597;28;20698;-79
2022/08/19 10:46:26;;;;;;;0.47;0.47;;;;;;;26.13;57.20;101503.53;5033978;28;20059;-80
2022/08/19 10:48:53;;;;;;;2.38;1.67;;;;;;;26.23;57.38;101491.94;5034489;28;20183;-80
2022/08/19 10:54:07;;;;;;;0.57;0.55;;;;;;;26.51;57.99;101485.25;5034275;28;20028;-79
2022/08/19 10:57:05;;;;;;;0.10;0.10;;;;;;;26.68;56.64;101492.09;5036547;28;20032;-80
2022/08/19 10:59:27;;;;;;;0.30;0.30;;;;;;;26.86;55.65;101483.50;5032331;28;20436;-79
2022/08/19 11:01:58;;;;;;;0.73;0.57;;;;;;;27.03;54.68;101491.19;5034205;28;20085;-80
2022/08/19 11:04:24;;;;;;;0.17;0.17;;;;;;;27.02;54.05;101488.59;5033992;28;20147;-81
2022/08/19 11:06:50;;;;;;;0.10;0.10;;;;;;;26.98;52.83;101492.53;5036393;28;20025;-80
2022/08/19 11:09:24;;;;;;;0.20;0.20;;;;;;;27.13;53.73;101491.31;5034508;28;20220;-81
2022/08/19 11:11:52;;;;;;;0.10;0.10;;;;;;;27.22;54.09;101487.84;5034423;28;20024;-81
2022/08/19 11:14:23;;;;;;;0.20;0.20;;;;;;;27.32;52.96;101489.84;5029485;28;20083;-80
2022/08/19 11:16:55;;;;;;;0.20;0.20;;;;;;;27.33;52.85;101489.72;5033835;28;20071;-81
2022/08/19 11:19:23;;;;;;;0.10;0.10;;;;;;;27.46;53.04;101489.59;5034995;28;20024;-80
2022/08/19 11:21:52;;;;;;;0.20;0.20;;;;;;;27.60;52.38;101488.44;5032305;28;20279;-80
2022/08/19 11:24:22;;;;;;;0.10;0.10;;;;;;;27.64;51.53;101489.94;5033882;28;20229;-81
2022/08/19 11:26:50;;;;;;;1.75;0.65;;;;;;;27.72;52.07;101487.44;5031635;28;20028;-81
2022/08/19 11:29:19;;;;;;;0.10;0.10;;;;;;;27.74;51.42;101490.06;5032863;28;20567;-77
2022/08/19 11:31:48;;;;;;;0.40;0.40;;;;;;;27.69;51.72;101490.44;5029683;28;20123;-80
2022/08/19 11:34:20;;;;;;;0.38;0.38;;;;;;;27.67;52.52;101484.25;5012592;28;20921;-81
2022/08/19 11:36:48;;;;;;;0.40;0.40;;;;;;;27.56;52.07;101486.97;5012870;28;20057;-80
2022/08/19 11:39:18;;;;;;;2.38;0.70;;;;;;;27.51;52.69;101483.78;5003812;28;20035;-80
2022/08/19 11:41:44;;;;;;;0.40;0.40;;;;;;;27.31;52.16;101494.41;5013714;28;20051;-80
2022/08/19 11:44:13;;;;;;;0.25;0.25;;;;;;;26.88;53.12;101487.84;5009845;28;20380;-80
2022/08/19 11:46:40;;;;;;;0.22;0.22;;;;;;;26.69;54.14;101485.66;5011638;28;20024;-81
2022/08/19 11:49:09;;;;;;;0.15;0.15;;;;;;;26.52;54.60;101483.38;5010931;28;20141;-80
2022/08/19 11:51:36;;;;;;;0.17;0.17;;;;;;;26.36;55.50;101490.03;5008541;28;20748;-81
2022/08/19 11:54:04;;;;;;;0.17;0.17;;;;;;;26.04;56.15;101490.59;5011302;28;20024;-80
2022/08/19 11:56:31;;;;;;;0.10;0.10;;;;;;;26.05;56.15;101494.19;5010406;28;20535;-81
2022/08/19 11:58:57;;;;;;;0.22;0.22;;;;;;;26.07;57.16;101501.28;5010320;28;20135;-80